createdAt,value
2022-10-19T00:02:18.419Z,14.28
2022-10-19T00:04:46.143Z,14.20
2022-10-19T00:07:13.651Z,13.99
2022-10-19T00:09:41.258Z,14.03
2022-10-19T00:12:08.764Z,14.26
2022-10-19T00:14:37.643Z,14.30
2022-10-19T00:17:05.173Z,14.38
2022-10-19T00:19:32.704Z,14.39
2022-10-19T00:22:00.218Z,14.38
2022-10-19T00:24:27.843Z,14.40
2022-10-19T00:26:55.374Z,14.26
2022-10-19T00:29:22.927Z,14.17
2022-10-19T00:31:52.204Z,13.90
2022-10-19T00:34:19.944Z,14.02
2022-10-19T00:36:47.492Z,14.31
2022-10-19T00:39:16.806Z,13.71
2022-10-19T00:41:45.368Z,13.18
2022-10-19T00:44:50.077Z,13.16
2022-10-19T00:47:21.914Z,13.30
2022-10-19T00:49:49.495Z,13.75
2022-10-19T00:52:20.595Z,13.94
2022-10-19T00:54:50.315Z,14.08
2022-10-19T00:57:18.280Z,14.22
2022-10-19T00:59:47.276Z,14.49
2022-10-19T01:02:15.154Z,14.52
2022-10-19T01:04:49.622Z,14.89
2022-10-19T01:07:17.416Z,15.02
2022-10-19T01:09:44.941Z,15.08
2022-10-19T01:12:29.798Z,14.76
2022-10-19T01:15:11.119Z,14.17
2022-10-19T01:17:50.565Z,13.88
2022-10-19T01:20:42.876Z,13.57
2022-10-19T01:23:44.720Z,13.61
2022-10-19T01:26:27.371Z,13.60
2022-10-19T01:29:05.376Z,13.78
2022-10-19T01:31:44.816Z,14.10
2022-10-19T01:34:18.838Z,14.36
2022-10-19T01:36:58.892Z,14.25
2022-10-19T01:39:37.004Z,14.71
2022-10-19T01:42:12.681Z,15.10
2022-10-19T01:44:47.444Z,13.66
2022-10-19T01:47:21.136Z,13.43
2022-10-19T01:49:55.604Z,13.20
2022-10-19T01:52:25.152Z,13.14
2022-10-19T01:54:57.335Z,13.12
2022-10-19T01:57:30.044Z,13.12
2022-10-19T01:59:58.816Z,13.39
2022-10-19T02:02:28.909Z,13.25
2022-10-19T02:04:58.617Z,13.60
2022-10-19T02:07:26.861Z,13.50
2022-10-19T02:09:54.493Z,13.69
2022-10-19T02:12:22.774Z,14.02
2022-10-19T02:14:54.466Z,14.44
2022-10-19T02:17:26.390Z,14.13
2022-10-19T02:19:56.059Z,13.93
2022-10-19T02:22:23.590Z,13.99
2022-10-19T02:24:51.515Z,13.85
2022-10-19T02:27:19.859Z,14.36
2022-10-19T02:29:47.664Z,13.91
2022-10-19T02:32:15.303Z,14.40
2022-10-19T02:34:43.310Z,13.94
2022-10-19T02:37:12.461Z,13.79
2022-10-19T02:39:40.606Z,13.47
2022-10-19T02:42:12.212Z,13.38
2022-10-19T02:44:44.681Z,13.48
2022-10-19T02:47:16.605Z,13.69
2022-10-19T02:49:44.823Z,13.85
2022-10-19T02:52:14.880Z,14.19
2022-10-19T02:54:44.376Z,13.81
2022-10-19T02:57:17.960Z,13.75
2022-10-19T02:59:45.648Z,13.29
2022-10-19T03:02:13.705Z,12.95
2022-10-19T03:04:42.493Z,13.02
2022-10-19T03:07:11.455Z,12.86
2022-10-19T03:09:40.396Z,12.53
2022-10-19T03:12:07.923Z,12.43
2022-10-19T03:14:35.476Z,12.68
2022-10-19T03:17:03.443Z,13.26
2022-10-19T03:19:31.105Z,13.44
2022-10-19T03:21:58.984Z,13.56
2022-10-19T03:24:26.617Z,14.12
2022-10-19T03:26:55.590Z,14.19
2022-10-19T03:29:23.151Z,14.47
2022-10-19T03:31:51.265Z,14.59
2022-10-19T03:34:18.787Z,14.63
2022-10-19T03:36:46.688Z,14.49
2022-10-19T03:39:16.312Z,14.70
2022-10-19T03:41:44.408Z,14.80
2022-10-19T03:44:13.380Z,14.95
2022-10-19T03:46:41.012Z,15.12
2022-10-19T03:49:11.986Z,14.69
2022-10-19T03:51:39.672Z,14.24
2022-10-19T03:54:09.134Z,13.78
2022-10-19T03:56:37.107Z,13.96
2022-10-19T03:59:06.938Z,13.59
2022-10-19T04:01:38.434Z,12.98
2022-10-19T04:04:07.942Z,13.05
2022-10-19T04:06:37.504Z,12.71
2022-10-19T04:09:05.961Z,12.55
2022-10-19T04:11:35.117Z,12.77
2022-10-19T04:14:03.418Z,12.92
2022-10-19T04:16:32.330Z,12.61
2022-10-19T04:19:01.824Z,12.56
2022-10-19T04:21:31.410Z,12.41
2022-10-19T04:24:01.360Z,12.78
2022-10-19T04:26:29.255Z,13.01
2022-10-19T04:28:58.977Z,13.36
2022-10-19T04:31:26.778Z,13.70
2022-10-19T04:33:54.307Z,13.74
2022-10-19T04:36:24.556Z,13.03
2022-10-19T04:38:52.436Z,13.14
2022-10-19T04:41:21.739Z,12.49
2022-10-19T04:43:50.246Z,12.26
2022-10-19T04:46:19.634Z,12.45
2022-10-19T04:48:48.709Z,12.08
2022-10-19T04:51:17.514Z,11.75
2022-10-19T04:53:46.999Z,11.46
2022-10-19T04:56:16.421Z,11.74
2022-10-19T04:58:44.224Z,12.12
2022-10-19T05:01:14.147Z,12.01
2022-10-19T05:03:42.024Z,11.86
2022-10-19T05:06:10.903Z,12.15
2022-10-19T05:08:39.017Z,12.04
2022-10-19T05:11:09.908Z,11.89
2022-10-19T05:13:37.476Z,12.24
2022-10-19T05:16:06.992Z,11.69
2022-10-19T05:18:35.243Z,11.84
2022-10-19T05:21:04.407Z,12.03
2022-10-19T05:26:02.336Z,12.80
2022-10-19T05:28:31.652Z,13.10
2022-10-19T05:31:06.914Z,13.40
2022-10-19T05:33:34.974Z,13.41
2022-10-19T05:36:14.796Z,13.37
2022-10-19T05:38:42.382Z,13.55
2022-10-19T05:41:09.973Z,13.49
2022-10-19T05:43:39.073Z,13.52
2022-10-19T05:46:08.163Z,13.56
2022-10-19T05:48:36.105Z,13.62
2022-10-19T05:51:06.152Z,13.55
2022-10-19T05:53:34.587Z,13.43
2022-10-19T05:56:02.157Z,13.69
2022-10-19T05:58:31.061Z,13.89
2022-10-19T06:01:01.416Z,13.08
2022-10-19T06:03:29.877Z,12.92
2022-10-19T06:05:58.314Z,13.19
2022-10-19T06:08:26.348Z,12.48
2022-10-19T06:10:53.920Z,12.19
2022-10-19T06:13:21.832Z,12.24
2022-10-19T06:15:51.888Z,12.97
2022-10-19T06:18:25.498Z,13.13
2022-10-19T06:20:53.704Z,13.41
2022-10-19T06:23:21.228Z,13.69
2022-10-19T06:25:48.789Z,13.99
2022-10-19T06:28:16.331Z,13.77
2022-10-19T06:30:43.924Z,13.84
2022-10-19T06:33:11.465Z,14.01
2022-10-19T06:35:42.357Z,14.00
2022-10-19T06:38:09.975Z,14.41
2022-10-19T06:40:37.520Z,14.22
2022-10-19T06:43:05.058Z,13.81
2022-10-19T06:45:35.857Z,14.54
2022-10-19T06:48:06.805Z,14.77
2022-10-19T06:50:35.351Z,14.22
2022-10-19T06:53:04.225Z,14.33
2022-10-19T06:55:31.743Z,14.32
2022-10-19T06:58:01.565Z,13.65
2022-10-19T07:00:29.833Z,14.19
2022-10-19T07:02:59.327Z,14.65
2022-10-19T07:05:26.844Z,15.03
2022-10-19T07:07:54.379Z,14.05
2022-10-19T07:10:23.273Z,14.05
2022-10-19T07:12:50.848Z,13.90
2022-10-19T07:15:18.413Z,14.34
2022-10-19T07:17:45.936Z,14.78
2022-10-19T07:20:13.456Z,14.66
2022-10-19T07:22:40.944Z,15.08
2022-10-19T07:25:09.221Z,14.65
2022-10-19T07:27:40.125Z,14.14
2022-10-19T07:30:08.845Z,14.05
2022-10-19T07:32:36.363Z,14.25
2022-10-19T07:35:04.096Z,13.20
2022-10-19T07:37:32.005Z,13.36
2022-10-19T07:39:59.719Z,14.11
2022-10-19T07:42:30.334Z,14.22
2022-10-19T07:44:59.188Z,14.91
2022-10-19T07:47:26.710Z,15.07
2022-10-19T07:49:54.221Z,15.21
2022-10-19T07:52:21.757Z,15.80
2022-10-19T07:54:49.592Z,15.32
2022-10-19T07:57:17.125Z,15.06
2022-10-19T07:59:44.633Z,14.14
2022-10-19T08:02:16.493Z,14.29
2022-10-19T08:05:02.013Z,14.65
2022-10-19T08:07:34.219Z,15.00
2022-10-19T08:10:01.791Z,15.03
2022-10-19T08:12:29.288Z,14.94
2022-10-19T08:14:56.783Z,14.52
2022-10-19T08:17:25.647Z,14.51
2022-10-19T08:19:53.162Z,14.44
2022-10-19T08:22:20.670Z,14.24
2022-10-19T08:24:48.168Z,14.32
2022-10-19T08:27:15.937Z,14.03
2022-10-19T08:29:43.442Z,13.78
2022-10-19T08:32:11.147Z,14.05
2022-10-19T08:34:40.161Z,14.28
2022-10-19T08:37:19.720Z,14.57
2022-10-19T08:39:55.217Z,14.84
2022-10-19T08:42:30.049Z,15.11
2022-10-19T08:45:09.195Z,15.18
2022-10-19T08:47:59.717Z,15.02
2022-10-19T08:50:33.919Z,15.06
2022-10-19T08:53:04.651Z,15.18
2022-10-19T08:55:42.385Z,14.85
2022-10-19T08:58:22.315Z,14.37
2022-10-19T09:00:56.197Z,14.66
2022-10-19T09:03:37.811Z,13.91
2022-10-19T09:06:23.802Z,13.91
2022-10-19T09:08:54.184Z,13.87
2022-10-19T09:11:25.941Z,13.92
2022-10-19T09:14:05.644Z,13.76
2022-10-19T09:16:34.702Z,13.87
2022-10-19T09:19:02.333Z,13.71
2022-10-19T09:21:47.094Z,13.88
2022-10-19T09:24:28.365Z,13.79
2022-10-19T09:26:58.401Z,13.89
2022-10-19T09:29:32.926Z,13.73
2022-10-19T09:32:02.523Z,13.77
2022-10-19T09:34:35.125Z,13.79
2022-10-19T09:37:04.722Z,13.54
2022-10-19T09:39:32.433Z,13.43
2022-10-19T09:42:06.427Z,13.04
2022-10-19T09:44:34.016Z,13.03
2022-10-19T09:47:16.345Z,12.91
2022-10-19T09:49:46.141Z,12.94
2022-10-19T09:52:37.886Z,13.53
2022-10-19T09:55:07.917Z,13.81
2022-10-19T09:57:43.139Z,13.73
2022-10-19T10:00:19.056Z,13.80
2022-10-19T10:02:51.464Z,13.75
2022-10-19T10:05:20.471Z,13.79
2022-10-19T10:07:55.499Z,13.87
2022-10-19T10:10:28.227Z,14.10
2022-10-19T10:12:59.586Z,13.42
2022-10-19T10:15:29.943Z,13.74
2022-10-19T10:17:59.146Z,13.60
2022-10-19T10:20:30.250Z,13.53
2022-10-19T10:23:02.393Z,13.66
2022-10-19T10:25:32.348Z,13.68
2022-10-19T10:28:02.806Z,13.72
2022-10-19T10:30:35.622Z,13.05
2022-10-19T10:33:13.351Z,12.80
2022-10-19T10:35:53.651Z,12.98
2022-10-19T10:38:26.056Z,13.11
2022-10-19T10:40:57.247Z,13.84
2022-10-19T10:43:30.324Z,13.50
2022-10-19T10:46:02.576Z,14.01
2022-10-19T10:48:32.825Z,13.87
2022-10-19T10:51:02.228Z,13.72
2022-10-19T10:53:36.330Z,13.26
2022-10-19T10:56:05.180Z,13.73
2022-10-19T10:58:41.075Z,13.81
2022-10-19T11:01:19.863Z,13.47
2022-10-19T11:03:54.995Z,13.66
2022-10-19T11:09:09.119Z,14.05
2022-10-19T11:11:38.759Z,14.09
2022-10-19T11:14:23.488Z,13.99
2022-10-19T11:16:54.155Z,13.94
2022-10-19T11:19:25.673Z,14.44
2022-10-19T11:21:59.841Z,15.48
2022-10-19T11:24:38.550Z,16.03
2022-10-19T11:27:18.245Z,16.21
2022-10-19T11:30:03.061Z,15.82
2022-10-19T11:32:40.436Z,16.21
2022-10-19T11:35:21.753Z,16.86
2022-10-19T11:38:21.366Z,17.59
2022-10-19T11:43:59.662Z,18.37
2022-10-19T11:46:33.165Z,17.60
2022-10-19T11:49:22.172Z,17.11
2022-10-19T11:51:57.367Z,17.57
2022-10-19T11:54:41.765Z,17.15
2022-10-19T11:57:17.007Z,17.42
2022-10-19T12:00:04.062Z,18.18
2022-10-19T12:03:03.701Z,19.21
2022-10-19T12:05:36.453Z,19.22
2022-10-19T12:08:17.054Z,19.13
2022-10-19T12:10:51.724Z,19.94
2022-10-19T12:13:26.972Z,19.29
2022-10-19T12:15:57.231Z,19.60
2022-10-19T12:18:32.835Z,19.83
2022-10-19T12:21:03.704Z,20.56
2022-10-19T12:23:33.974Z,21.08
2022-10-19T12:26:04.443Z,20.49
2022-10-19T12:28:36.264Z,20.00
2022-10-19T12:31:06.360Z,19.96
2022-10-19T12:33:47.167Z,19.63
2022-10-19T12:36:25.704Z,18.82
2022-10-19T12:39:01.780Z,19.29
2022-10-19T12:41:37.408Z,18.50
2022-10-19T12:44:26.978Z,18.93
2022-10-19T12:47:01.094Z,18.90
2022-10-19T12:49:37.030Z,18.74
2022-10-19T12:52:07.762Z,19.08
2022-10-19T12:54:38.606Z,19.80
2022-10-19T12:57:23.026Z,19.59
2022-10-19T13:00:01.817Z,19.71
2022-10-19T13:05:01.474Z,20.24
2022-10-19T13:07:37.360Z,19.96
2022-10-19T13:10:09.570Z,19.21
2022-10-19T13:12:47.693Z,17.98
2022-10-19T13:15:53.003Z,17.19
2022-10-19T13:19:06.431Z,16.77
2022-10-19T13:21:54.368Z,17.42
2022-10-19T13:24:32.348Z,18.04
2022-10-19T13:27:39.510Z,18.35
2022-10-19T13:30:47.038Z,17.83
2022-10-19T13:33:48.127Z,18.85
2022-10-19T13:36:16.251Z,19.28
2022-10-19T13:38:45.274Z,20.41
2022-10-19T13:41:22.452Z,19.98
2022-10-19T13:44:01.846Z,19.78
2022-10-19T13:46:49.049Z,19.73
2022-10-19T13:49:35.580Z,18.65
2022-10-19T13:52:26.319Z,18.34
2022-10-19T13:55:17.014Z,18.82
2022-10-19T13:58:02.896Z,19.33
2022-10-19T14:00:37.132Z,19.35
2022-10-19T14:03:27.359Z,19.08
2022-10-19T14:06:18.204Z,18.80
2022-10-19T14:09:24.777Z,18.44
2022-10-19T14:11:55.444Z,18.15
2022-10-19T14:14:24.879Z,17.69
2022-10-19T14:16:58.263Z,17.02
2022-10-19T14:19:31.724Z,16.85
2022-10-19T14:22:02.685Z,16.51
2022-10-19T14:24:33.386Z,16.94
2022-10-19T14:27:03.048Z,16.86
2022-10-19T14:29:32.311Z,16.59
2022-10-19T14:32:00.832Z,16.36
2022-10-19T14:34:28.424Z,16.72
2022-10-19T14:36:56.086Z,16.31
2022-10-19T14:39:30.606Z,16.60
2022-10-19T14:42:00.461Z,16.68
2022-10-19T14:44:41.885Z,17.26
2022-10-19T14:47:27.559Z,16.98
2022-10-19T14:49:55.111Z,16.38
2022-10-19T14:55:07.870Z,16.12
2022-10-19T14:57:38.584Z,16.11
2022-10-19T15:00:10.081Z,15.93
2022-10-19T15:02:40.517Z,15.78
2022-10-19T15:05:20.247Z,15.67
2022-10-19T15:07:48.265Z,15.56
2022-10-19T15:10:23.793Z,15.39
2022-10-19T15:12:53.681Z,15.70
2022-10-19T15:15:26.573Z,15.58
2022-10-19T15:17:56.463Z,15.69
2022-10-19T15:20:27.640Z,15.66
2022-10-19T15:22:55.672Z,15.75
2022-10-19T15:25:33.318Z,15.78
2022-10-19T15:28:22.385Z,15.94
2022-10-19T15:31:00.392Z,15.76
2022-10-19T15:33:28.738Z,15.38
2022-10-19T15:36:08.375Z,15.34
2022-10-19T15:38:36.547Z,15.16
2022-10-19T15:41:05.842Z,14.89
2022-10-19T15:43:37.697Z,15.03
2022-10-19T15:46:07.306Z,14.86
2022-10-19T15:48:50.029Z,14.96
2022-10-19T15:51:47.991Z,14.46
2022-10-19T15:54:17.697Z,14.56
2022-10-19T15:56:48.333Z,14.57
2022-10-19T15:59:18.008Z,14.72
2022-10-19T16:01:51.134Z,15.12
2022-10-19T16:04:22.680Z,15.14
2022-10-19T16:06:50.328Z,15.00
2022-10-19T16:09:20.122Z,15.05
2022-10-19T16:11:50.128Z,14.43
2022-10-19T16:16:51.077Z,14.44
2022-10-19T16:19:18.628Z,14.55
2022-10-19T16:21:50.110Z,14.78
2022-10-19T16:24:18.009Z,14.81
2022-10-19T16:26:45.521Z,14.67
2022-10-19T16:29:14.418Z,14.65
2022-10-19T16:31:41.931Z,14.85
2022-10-19T16:34:09.474Z,14.75
2022-10-19T16:36:36.976Z,14.60
2022-10-19T16:39:04.942Z,14.63
2022-10-19T16:41:32.523Z,14.62
2022-10-19T16:44:00.292Z,14.51
2022-10-19T16:46:29.149Z,14.34
2022-10-19T16:48:56.735Z,14.11
2022-10-19T16:51:31.156Z,13.78
2022-10-19T16:53:59.061Z,13.87
2022-10-19T16:56:29.141Z,13.63
2022-10-19T16:58:59.596Z,13.65
2022-10-19T17:01:29.343Z,13.62
2022-10-19T17:03:57.011Z,13.64
2022-10-19T17:06:25.231Z,13.57
2022-10-19T17:09:29.908Z,13.41
2022-10-19T17:11:41.388Z,13.24
2022-10-19T17:14:12.918Z,13.09
2022-10-19T17:16:41.885Z,12.93
2022-10-19T17:19:10.922Z,12.88
2022-10-19T17:21:39.634Z,12.81
2022-10-19T17:24:09.045Z,12.84
2022-10-19T17:26:39.105Z,12.87
2022-10-19T17:29:07.640Z,12.70
2022-10-19T17:31:36.504Z,12.71
2022-10-19T17:34:05.749Z,12.67
2022-10-19T17:36:36.697Z,12.58
2022-10-19T17:39:08.521Z,12.40
2022-10-19T17:41:36.607Z,11.77
2022-10-19T17:44:05.706Z,11.59
2022-10-19T17:46:35.600Z,11.65
2022-10-19T17:49:05.224Z,11.39
2022-10-19T17:51:34.393Z,11.38
2022-10-19T17:54:04.307Z,11.35
2022-10-19T17:56:32.436Z,11.16
2022-10-19T17:59:02.375Z,11.76
2022-10-19T18:01:30.349Z,11.82
2022-10-19T18:03:58.288Z,11.89
2022-10-19T18:06:29.504Z,11.93
2022-10-19T18:08:57.764Z,12.01
2022-10-19T18:11:27.418Z,12.00
2022-10-19T18:13:57.224Z,11.90
2022-10-19T18:16:27.387Z,11.82
2022-10-19T18:18:57.381Z,11.82
2022-10-19T18:21:28.728Z,11.85
2022-10-19T18:23:58.579Z,11.84
2022-10-19T18:26:28.733Z,11.81
2022-10-19T18:28:57.221Z,11.73
2022-10-19T18:31:28.564Z,11.09
2022-10-19T18:33:58.049Z,10.99
2022-10-19T18:36:27.629Z,10.87
2022-10-19T18:38:57.337Z,11.22
2022-10-19T18:41:25.733Z,11.03
2022-10-19T18:43:54.994Z,10.96
2022-10-19T18:46:24.424Z,10.90
2022-10-19T18:48:52.086Z,10.92
2022-10-19T18:51:20.735Z,10.97
2022-10-19T18:53:49.670Z,10.62
2022-10-19T18:56:19.640Z,10.86
2022-10-19T18:58:47.623Z,10.98
2022-10-19T19:01:17.408Z,10.85
2022-10-19T19:03:47.098Z,11.41
2022-10-19T19:06:16.537Z,11.00
2022-10-19T19:11:21.089Z,10.31
2022-10-19T19:13:49.646Z,10.00
2022-10-19T19:16:17.202Z,9.93
2022-10-19T19:18:44.740Z,9.90
2022-10-19T19:21:15.346Z,9.87
2022-10-19T19:23:43.213Z,9.95
2022-10-19T19:26:11.184Z,9.94
2022-10-19T19:28:41.925Z,9.86
2022-10-19T19:31:11.599Z,9.92
2022-10-19T19:33:39.906Z,9.73
2022-10-19T19:36:09.833Z,9.86
2022-10-19T19:38:37.843Z,9.80
2022-10-19T19:41:06.575Z,9.83
2022-10-19T19:43:36.930Z,9.97
2022-10-19T19:46:09.460Z,9.85
2022-10-19T19:48:37.515Z,9.90
2022-10-19T19:51:05.392Z,9.74
2022-10-19T19:53:32.918Z,9.74
2022-10-19T19:56:00.446Z,9.95
2022-10-19T19:58:27.967Z,9.80
2022-10-19T20:00:55.477Z,9.74
2022-10-19T20:03:24.414Z,9.74
2022-10-19T20:05:51.948Z,9.84
2022-10-19T20:08:19.604Z,10.06
2022-10-19T20:10:47.158Z,10.12
2022-10-19T20:13:14.656Z,10.31
2022-10-19T20:15:42.144Z,9.99
2022-10-19T20:18:09.692Z,10.06
2022-10-19T20:20:41.291Z,10.23
2022-10-19T20:23:08.799Z,10.06
2022-10-19T20:25:37.675Z,9.75
2022-10-19T20:28:05.556Z,10.36
2022-10-19T20:30:33.121Z,10.13
2022-10-19T20:33:00.866Z,10.00
2022-10-19T20:35:28.378Z,9.59
2022-10-19T20:37:58.491Z,9.89
2022-10-19T20:40:26.228Z,9.66
2022-10-19T20:42:53.792Z,9.49
2022-10-19T20:45:21.287Z,9.37
2022-10-19T20:47:48.852Z,9.45
2022-10-19T20:50:19.240Z,9.65
2022-10-19T20:52:49.292Z,9.63
2022-10-19T20:55:20.255Z,10.06
2022-10-19T20:57:47.803Z,9.58
2022-10-19T21:00:16.214Z,9.44
2022-10-19T21:02:45.162Z,9.25
2022-10-19T21:05:13.169Z,9.22
2022-10-19T21:07:40.693Z,9.04
2022-10-19T21:10:09.004Z,9.07
2022-10-19T21:12:38.244Z,9.06
2022-10-19T21:15:06.315Z,9.07
2022-10-19T21:17:33.813Z,8.75
2022-10-19T21:20:01.340Z,8.80
2022-10-19T21:22:28.859Z,8.87
2022-10-19T21:24:56.385Z,9.00
2022-10-19T21:27:23.915Z,9.02
2022-10-19T21:29:52.817Z,9.36
2022-10-19T21:32:20.966Z,9.19
2022-10-19T21:34:48.509Z,9.05
2022-10-19T21:37:16.109Z,8.86
2022-10-19T21:39:43.605Z,8.89
2022-10-19T21:42:11.121Z,8.99
2022-10-19T21:44:38.659Z,9.33
2022-10-19T21:47:07.909Z,9.03
2022-10-19T21:49:35.436Z,8.95
2022-10-19T21:52:02.973Z,8.95
2022-10-19T21:54:30.499Z,8.88
2022-10-19T21:57:00.268Z,8.73
2022-10-19T21:59:27.936Z,9.33
2022-10-19T22:01:56.275Z,9.18
2022-10-19T22:04:25.319Z,8.84
2022-10-19T22:06:52.881Z,9.00
2022-10-19T22:09:22.647Z,9.01
2022-10-19T22:11:50.375Z,9.06
2022-10-19T22:14:18.729Z,9.15
2022-10-19T22:16:46.312Z,9.31
2022-10-19T22:19:14.501Z,9.60
2022-10-19T22:21:43.393Z,10.30
2022-10-19T22:24:13.580Z,9.91
2022-10-19T22:26:43.434Z,9.43
2022-10-19T22:29:11.065Z,9.66
2022-10-19T22:31:38.707Z,10.12
2022-10-19T22:34:08.646Z,9.65
2022-10-19T22:36:36.661Z,9.75
2022-10-19T22:39:06.331Z,9.83
2022-10-19T22:41:33.806Z,9.92
2022-10-19T22:44:01.351Z,9.89
2022-10-19T22:46:28.892Z,9.85
2022-10-19T22:48:56.468Z,9.42
2022-10-19T22:51:24.018Z,9.61
2022-10-19T22:53:51.497Z,9.28
2022-10-19T22:56:20.367Z,9.47
2022-10-19T22:58:47.884Z,9.65
2022-10-19T23:01:17.186Z,8.93
2022-10-19T23:03:44.767Z,8.98
2022-10-19T23:06:14.461Z,8.61
2022-10-19T23:08:42.265Z,8.96
2022-10-19T23:11:09.800Z,8.73
2022-10-19T23:13:40.056Z,9.25
2022-10-19T23:16:08.349Z,9.29
2022-10-19T23:18:37.951Z,9.16
2022-10-19T23:21:07.155Z,9.30
2022-10-19T23:23:35.308Z,9.78
2022-10-19T23:26:05.500Z,9.76
2022-10-19T23:28:35.043Z,9.09
2022-10-19T23:31:07.407Z,9.14
2022-10-19T23:33:35.377Z,8.95
2022-10-19T23:36:04.777Z,9.06
2022-10-19T23:38:32.329Z,8.67
2022-10-19T23:40:59.843Z,8.50
2022-10-19T23:43:27.674Z,8.13
2022-10-19T23:45:55.396Z,8.75
2022-10-19T23:48:24.308Z,8.61
2022-10-19T23:50:58.346Z,8.46
2022-10-19T23:53:26.491Z,9.23
2022-10-19T23:55:59.502Z,8.90
2022-10-19T23:58:27.024Z,8.71
